Vandiver, Alabama
Current Conditions -  °F | °C
As of 1:53 PM on Tuesday 21 Oct 2014 (Local Time) from KBHM Reporting Station
Few Clouds Few Clouds  
Wind Chill: 76°   Ceiling: Unl
Heat Index: 76°   Visibility: 10mi
Dew Point: 54°   Wind: 15mph
Humidity: 46%   Direction: 330°NNW
Pressure: 30.02"   Gusts: NA
Location:  33.47°N, 86.51°W
Report Text: KBHM 211853Z 33013KT 10SM FEW055 24/12 A3002 RMK AO2 SLP161 T02440122
Loading
Personal Weather Stations






























Interactive Weather Map
Tropical Storm Tracking
New forecast layout! Learn more

10-Day Weather Forecast

Advertisements
Track Severe Weather on mobile